createdAt,value
2022-11-29T00:02:46.369Z,8
2022-11-29T00:12:47.101Z,8
2022-11-29T00:22:47.738Z,8
2022-11-29T00:58:41.156Z,8
2022-11-29T01:08:41.837Z,8
2022-11-29T01:18:42.433Z,7.9
2022-11-29T01:38:43.672Z,7.9
2022-11-29T01:58:45.181Z,8
2022-11-29T02:08:45.973Z,8
2022-11-29T02:18:46.785Z,8
2022-11-29T02:38:47.643Z,8
2022-11-29T02:48:48.195Z,8
2022-11-29T02:58:48.613Z,8
2022-11-29T03:18:49.640Z,8
2022-11-29T03:28:50.594Z,8
2022-11-29T03:38:51.964Z,7.9
2022-11-29T03:48:52.079Z,7.9
2022-11-29T03:58:53.114Z,7.8
2022-11-29T04:08:53.753Z,7.8
2022-11-29T04:18:53.850Z,7.8
2022-11-29T04:28:54.703Z,7.8
2022-11-29T04:38:55.521Z,7.8
2022-11-29T04:58:56.188Z,7.7
2022-11-29T05:08:56.853Z,7.7
2022-11-29T05:18:57.380Z,7.6
2022-11-29T05:28:57.568Z,7.6
2022-11-29T05:38:58.645Z,7.7
2022-11-29T05:48:58.969Z,7.7
2022-11-29T05:59:00.077Z,7.6
2022-11-29T06:09:00.934Z,7.5
2022-11-29T06:19:01.781Z,7.5
2022-11-29T06:29:02.522Z,7.5
2022-11-29T06:39:03.521Z,7.5
2022-11-29T06:49:03.623Z,7.5
2022-11-29T06:59:04.270Z,7.5
2022-11-29T07:19:05.778Z,7.5
2022-11-29T07:39:06.493Z,7.5
2022-11-29T07:49:07.207Z,7.5
2022-11-29T08:09:08.788Z,7.5
2022-11-29T08:19:09.580Z,7.5
2022-11-29T08:29:10.236Z,7.6
2022-11-29T08:39:11.268Z,7.6
2022-11-29T08:49:11.538Z,7.7
2022-11-29T08:59:12.016Z,7.7
2022-11-29T09:09:12.205Z,7.8
2022-11-29T09:19:12.648Z,7.9
2022-11-29T09:29:12.982Z,7.9
2022-11-29T09:39:13.124Z,8
2022-11-29T09:49:13.654Z,8
2022-11-29T09:59:14.735Z,8
2022-11-29T10:09:15.458Z,8
2022-11-29T10:19:15.634Z,8
2022-11-29T10:39:17.261Z,8
2022-11-29T11:09:18.939Z,7.9
2022-11-29T11:29:20.164Z,7.8
2022-11-29T11:39:20.633Z,7.8
2022-11-29T11:49:21.548Z,7.8
2022-11-29T11:59:22.199Z,7.9
2022-11-29T12:09:22.328Z,7.9
2022-11-29T12:19:23.019Z,8
2022-11-29T12:29:23.677Z,8.1
2022-11-29T12:39:24.505Z,8.1
2022-11-29T12:49:25.352Z,8.1
2022-11-29T12:59:25.604Z,8.2
2022-11-29T13:09:26.251Z,8.3
2022-11-29T13:19:26.536Z,8.4
2022-11-29T13:29:27.211Z,8.4
2022-11-29T13:49:28.196Z,8.5
2022-11-29T13:59:28.593Z,8.4
2022-11-29T14:09:28.820Z,8.3
2022-11-29T14:19:33.312Z,8.4
2022-11-29T14:29:30.065Z,8.4
2022-11-29T14:39:30.342Z,8.4
2022-11-29T14:49:30.725Z,8.4
2022-11-29T14:59:31.596Z,8.4
2022-11-29T15:09:32.593Z,8.4
2022-11-29T15:19:33.053Z,8.4
2022-11-29T15:29:33.280Z,8.3
2022-11-29T15:39:34.013Z,8.3
2022-11-29T15:49:34.781Z,8.3
2022-11-29T15:59:35.562Z,8.3
2022-11-29T16:19:37.087Z,8.2
2022-11-29T16:29:38.081Z,8.1
2022-11-29T16:39:39.132Z,8.1
2022-11-29T16:49:39.264Z,8.1
2022-11-29T16:59:40.378Z,8
2022-11-29T17:09:40.883Z,8
2022-11-29T17:19:41.193Z,7.9
2022-11-29T17:29:42.060Z,7.9
2022-11-29T17:39:42.654Z,7.9
2022-11-29T17:40:04.481Z,7.9
2022-11-29T17:49:48.674Z,7.9
2022-11-29T17:59:48.965Z,7.8
2022-11-29T18:09:49.097Z,7.7
2022-11-29T18:19:49.852Z,7.7
2022-11-29T18:29:50.694Z,7.6
2022-11-29T18:39:50.660Z,7.6
2022-11-29T18:49:50.878Z,7.6
2022-11-29T18:59:51.873Z,7.6
2022-11-29T19:09:52.306Z,7.6
2022-11-29T19:19:52.463Z,7.5
2022-11-29T19:29:52.907Z,7.5
2022-11-29T19:49:55.846Z,7.5
2022-11-29T19:59:54.311Z,7.5
2022-11-29T20:09:54.935Z,7.4
2022-11-29T20:19:55.548Z,7.4
2022-11-29T20:29:55.783Z,7.4
2022-11-29T20:39:56.080Z,7.4
2022-11-29T20:49:57.089Z,7.4
2022-11-29T20:59:57.689Z,7.4
2022-11-29T21:10:01.048Z,7.4
2022-11-29T21:19:58.175Z,7.4
2022-11-29T21:29:59.052Z,7.4
2022-11-29T21:39:59.705Z,7.4
2022-11-29T21:50:00.339Z,7.4
2022-11-29T22:00:00.436Z,7.4
2022-11-29T22:10:00.596Z,7.4
2022-11-29T22:20:01.671Z,7.4
2022-11-29T22:30:01.937Z,7.4
2022-11-29T22:40:02.316Z,7.4
2022-11-29T22:50:02.556Z,7.4
2022-11-29T23:00:03.539Z,7.4
2022-11-29T23:10:04.001Z,7.5
2022-11-29T23:30:04.966Z,7.5
2022-11-29T23:40:05.946Z,7.5
2022-11-29T23:50:06.522Z,7.5
